createdAt,value
2018-01-02T00:00:18.599Z,1.00
2018-01-02T00:02:46.124Z,1.10
2018-01-02T00:05:13.691Z,1.00
2018-01-02T00:07:42.365Z,0.90
2018-01-02T00:10:09.832Z,1.10
2018-01-02T00:12:38.108Z,0.97
2018-01-02T00:15:06.395Z,1.23
2018-01-02T00:17:35.651Z,0.90
2018-01-02T00:20:03.151Z,0.97
2018-01-02T00:22:31.391Z,0.90
2018-01-02T00:24:58.916Z,1.00
2018-01-02T00:27:26.425Z,1.00
2018-01-02T00:29:53.891Z,0.70
2018-01-02T00:32:22.124Z,1.00
2018-01-02T00:34:49.637Z,0.70
2018-01-02T00:37:19.075Z,0.70
2018-01-02T00:39:46.551Z,0.75
2018-01-02T00:42:14.031Z,0.70
2018-01-02T00:44:41.549Z,0.80
2018-01-02T00:47:09.011Z,0.70
2018-01-02T00:49:36.521Z,0.60
2018-01-02T00:52:04.744Z,0.80
2018-01-02T00:54:32.279Z,0.70
2018-01-02T00:56:59.736Z,0.70
2018-01-02T00:59:27.253Z,0.80
2018-01-02T01:01:54.727Z,0.80
2018-01-02T01:04:22.965Z,0.77
2018-01-02T01:06:50.453Z,1.00
2018-01-02T01:09:17.915Z,1.10
2018-01-02T01:11:46.146Z,1.10
2018-01-02T01:14:13.611Z,0.90
2018-01-02T01:16:41.111Z,1.00
2018-01-02T01:19:09.338Z,1.00
2018-01-02T01:21:36.830Z,1.23
2018-01-02T01:24:05.115Z,1.10
2018-01-02T01:26:33.353Z,0.90
2018-01-02T01:29:00.819Z,0.90
2018-01-02T01:31:28.311Z,1.10
2018-01-02T01:33:56.541Z,0.90
2018-01-02T01:36:24.029Z,1.10
2018-01-02T01:38:51.500Z,1.10
2018-01-02T01:41:19.738Z,1.20
2018-01-02T01:43:47.220Z,1.10
2018-01-02T01:46:25.271Z,1.13
2018-01-02T01:48:54.558Z,1.10
2018-01-02T01:51:22.044Z,1.00
2018-01-02T01:53:49.512Z,1.13
2018-01-02T01:56:17.004Z,1.10
2018-01-02T01:58:44.477Z,1.07
2018-01-02T02:01:12.741Z,1.23
2018-01-02T02:03:40.200Z,1.20
2018-01-02T02:06:08.456Z,1.63
2018-01-02T02:08:35.920Z,1.52
2018-01-02T02:11:03.412Z,1.40
2018-01-02T02:13:30.877Z,2.00
2018-01-02T02:15:58.363Z,1.10
2018-01-02T02:18:25.831Z,0.93
2018-01-02T02:20:53.324Z,1.00
2018-01-02T02:23:21.556Z,1.20
2018-01-02T02:25:49.024Z,1.20
2018-01-02T02:28:16.512Z,1.10
2018-01-02T02:30:43.996Z,0.80
2018-01-02T02:33:11.475Z,1.02
2018-01-02T02:35:38.975Z,0.97
2018-01-02T02:38:06.447Z,1.03
2018-01-02T02:40:46.436Z,0.97
2018-01-02T02:43:13.936Z,1.00
2018-01-02T02:45:41.409Z,0.80
2018-01-02T02:48:09.649Z,0.90
2018-01-02T02:50:37.115Z,1.30
2018-01-02T02:53:04.591Z,1.10
2018-01-02T02:55:32.834Z,0.90
2018-01-02T02:58:00.312Z,0.80
2018-01-02T03:00:27.784Z,0.80
2018-01-02T03:02:55.267Z,1.00
2018-01-02T03:05:23.496Z,0.90
2018-01-02T03:07:50.983Z,0.90
2018-01-02T03:10:19.223Z,0.80
2018-01-02T03:12:46.700Z,1.03
2018-01-02T03:15:14.180Z,0.97
2018-01-02T03:17:42.436Z,0.80
2018-01-02T03:20:09.896Z,0.70
2018-01-02T03:22:37.391Z,0.90
2018-01-02T03:25:04.855Z,0.90
2018-01-02T03:27:32.351Z,0.90
2018-01-02T03:29:59.818Z,0.80
2018-01-02T03:32:27.390Z,0.70
2018-01-02T03:34:54.844Z,0.73
2018-01-02T03:37:22.335Z,0.70
2018-01-02T03:39:49.797Z,0.90
2018-01-02T03:42:17.281Z,0.60
2018-01-02T03:44:44.735Z,0.70
2018-01-02T03:47:12.204Z,0.70
2018-01-02T03:49:39.696Z,0.63
2018-01-02T03:52:07.153Z,0.70
2018-01-02T03:54:34.644Z,0.70
2018-01-02T03:57:02.106Z,0.70
2018-01-02T03:59:29.587Z,0.63
2018-01-02T04:01:57.059Z,0.60
2018-01-02T04:04:24.528Z,0.60
2018-01-02T04:06:51.987Z,0.77
2018-01-02T04:09:19.473Z,0.70
2018-01-02T04:11:47.704Z,0.60
2018-01-02T04:14:15.184Z,0.60
2018-01-02T04:16:42.650Z,0.60
2018-01-02T04:19:10.119Z,0.70
2018-01-02T04:21:38.382Z,0.60
2018-01-02T04:24:06.617Z,0.60
2018-01-02T04:26:34.073Z,0.60
2018-01-02T04:29:01.543Z,0.70
2018-01-02T04:31:29.002Z,0.60
2018-01-02T04:33:56.479Z,0.60
2018-01-02T04:36:23.935Z,0.60
2018-01-02T04:38:51.428Z,0.60
2018-01-02T04:41:18.895Z,0.60
2018-01-02T04:43:46.369Z,0.60
2018-01-02T04:46:13.832Z,0.70
2018-01-02T04:48:41.302Z,0.70
2018-01-02T04:51:08.769Z,0.60
2018-01-02T04:53:36.259Z,0.60
2018-01-02T04:56:04.483Z,0.70
2018-01-02T04:58:31.966Z,0.80
2018-01-02T05:00:59.458Z,0.70
2018-01-02T05:03:26.925Z,0.73
2018-01-02T05:05:54.397Z,0.70
2018-01-02T05:08:21.880Z,0.70
2018-01-02T05:10:49.355Z,0.70
2018-01-02T05:13:16.825Z,0.80
2018-01-02T05:15:44.299Z,0.80
2018-01-02T05:18:12.540Z,0.70
2018-01-02T05:20:40.024Z,0.90
2018-01-02T05:23:08.253Z,1.00
2018-01-02T05:25:35.757Z,2.57
2018-01-02T05:28:04.031Z,4.50
2018-01-02T05:30:32.270Z,1.27
2018-01-02T05:32:59.727Z,1.23
2018-01-02T05:35:27.212Z,1.20
2018-01-02T05:37:54.701Z,1.13
2018-01-02T05:40:22.174Z,1.00
2018-01-02T05:42:49.640Z,1.10
2018-01-02T05:45:17.135Z,1.10
2018-01-02T05:47:46.195Z,1.30
2018-01-02T05:50:13.677Z,1.60
2018-01-02T05:52:41.139Z,1.07
2018-01-02T05:55:08.628Z,1.07
2018-01-02T05:57:36.851Z,0.93
2018-01-02T06:00:04.327Z,1.20
2018-01-02T06:02:31.791Z,1.37
2018-01-02T06:04:59.263Z,1.30
2018-01-02T06:07:26.724Z,1.17
2018-01-02T06:09:54.989Z,1.10
2018-01-02T06:12:22.464Z,1.10
2018-01-02T06:14:50.703Z,1.50
2018-01-02T06:17:18.179Z,1.30
2018-01-02T06:19:45.644Z,1.00
2018-01-02T06:22:13.891Z,1.60
2018-01-02T06:24:41.395Z,1.40
2018-01-02T06:27:08.857Z,1.10
2018-01-02T06:29:36.359Z,1.37
2018-01-02T06:32:03.852Z,1.53
2018-01-02T06:34:32.136Z,2.12
2018-01-02T06:37:00.400Z,1.57
2018-01-02T06:39:28.636Z,1.60
2018-01-02T06:41:56.111Z,1.30
2018-01-02T06:44:25.376Z,3.80
2018-01-02T06:46:52.859Z,2.90
2018-01-02T06:49:20.339Z,2.87
2018-01-02T06:51:47.914Z,1.53
2018-01-02T06:54:15.383Z,1.50
2018-01-02T06:56:43.632Z,1.20
2018-01-02T06:59:11.113Z,1.70
2018-01-02T07:01:39.363Z,1.53
2018-01-02T07:04:06.935Z,1.10
2018-01-02T07:06:34.431Z,1.10
2018-01-02T07:09:01.888Z,1.10
2018-01-02T07:11:29.371Z,1.20
2018-01-02T07:13:56.842Z,1.10
2018-01-02T07:16:24.326Z,1.30
2018-01-02T07:18:52.551Z,1.17
2018-01-02T07:21:20.022Z,1.07
2018-01-02T07:23:47.506Z,1.87
2018-01-02T07:26:14.988Z,1.33
2018-01-02T07:28:43.240Z,2.10
2018-01-02T07:31:10.717Z,1.00
2018-01-02T07:33:38.955Z,1.00
2018-01-02T07:36:06.443Z,1.17
2018-01-02T07:38:33.988Z,1.43
2018-01-02T07:41:01.463Z,1.58
2018-01-02T07:43:29.715Z,1.27
2018-01-02T07:45:57.179Z,2.30
2018-01-02T07:48:24.659Z,0.90
2018-01-02T07:50:52.895Z,0.90
2018-01-02T07:53:20.386Z,1.00
2018-01-02T07:55:47.855Z,1.30
2018-01-02T07:58:16.104Z,1.27
2018-01-02T08:00:43.574Z,1.03
2018-01-02T08:03:11.818Z,1.30
2018-01-02T08:05:39.283Z,1.23
2018-01-02T08:08:06.759Z,0.80
2018-01-02T08:10:34.237Z,0.90
2018-01-02T08:13:02.494Z,1.10
2018-01-02T08:15:29.947Z,0.90
2018-01-02T08:17:57.447Z,1.20
2018-01-02T08:20:24.916Z,1.10
2018-01-02T08:22:52.387Z,1.00
2018-01-02T08:25:19.877Z,1.00
2018-01-02T08:27:47.352Z,1.23
2018-01-02T08:30:15.588Z,1.53
2018-01-02T08:32:43.089Z,1.40
2018-01-02T08:35:11.324Z,1.40
2018-01-02T08:37:38.822Z,1.50
2018-01-02T08:40:07.084Z,1.23
2018-01-02T08:42:34.551Z,1.60
2018-01-02T08:45:02.800Z,1.80
2018-01-02T08:47:31.036Z,1.57
2018-01-02T08:49:58.516Z,1.70
2018-01-02T08:52:25.993Z,1.70
2018-01-02T08:54:53.473Z,1.40
2018-01-02T08:57:21.707Z,3.93
2018-01-02T08:59:49.186Z,2.00
2018-01-02T09:02:16.765Z,8.60
2018-01-02T09:04:45.027Z,3.30
2018-01-02T09:07:12.488Z,4.50
2018-01-02T09:09:39.955Z,1.98
2018-01-02T09:12:07.420Z,1.57
2018-01-02T09:14:41.439Z,1.63
2018-01-02T09:17:09.667Z,1.47
2018-01-02T09:19:37.140Z,2.62
2018-01-02T09:22:04.712Z,1.58
2018-01-02T09:24:32.192Z,1.53
2018-01-02T09:27:00.429Z,1.50
2018-01-02T09:29:28.663Z,1.53
2018-01-02T09:31:56.180Z,1.83
2018-01-02T09:34:23.677Z,1.50
2018-01-02T09:36:51.143Z,1.70
2018-01-02T09:39:18.619Z,1.40
2018-01-02T09:41:46.084Z,2.42
2018-01-02T09:44:38.458Z,1.70
2018-01-02T09:47:06.699Z,1.60
2018-01-02T09:49:35.667Z,1.60
2018-01-02T09:52:03.148Z,1.80
2018-01-02T09:54:30.616Z,1.60
2018-01-02T09:56:58.088Z,1.57
2018-01-02T09:59:25.659Z,1.43
2018-01-02T10:01:53.119Z,1.30
2018-01-02T10:04:21.373Z,2.10
2018-01-02T10:06:48.839Z,1.57
2018-01-02T10:09:16.316Z,1.60
2018-01-02T10:11:45.541Z,1.90
2018-01-02T10:14:13.775Z,1.60
2018-01-02T10:16:42.005Z,1.40
2018-01-02T10:19:09.484Z,1.70
2018-01-02T10:21:36.963Z,1.60
2018-01-02T10:24:04.443Z,2.33
2018-01-02T10:26:32.683Z,1.47
2018-01-02T10:29:00.148Z,1.30
2018-01-02T10:31:27.616Z,1.43
2018-01-02T10:33:55.857Z,2.40
2018-01-02T10:36:23.355Z,2.20
2018-01-02T10:38:51.587Z,1.50
2018-01-02T10:41:19.067Z,1.77
2018-01-02T10:43:46.551Z,1.73
2018-01-02T10:46:14.809Z,2.00
2018-01-02T10:48:42.275Z,1.97
2018-01-02T10:51:09.829Z,1.50
2018-01-02T10:53:37.295Z,1.60
2018-01-02T10:56:05.549Z,2.03
2018-01-02T10:58:33.012Z,2.30
2018-01-02T11:01:01.306Z,2.10
2018-01-02T11:03:29.552Z,1.23
2018-01-02T11:05:57.036Z,1.50
2018-01-02T11:08:24.498Z,1.37
2018-01-02T11:10:57.753Z,3.30
2018-01-02T11:13:30.835Z,2.43
2018-01-02T11:15:58.317Z,1.60
2018-01-02T11:18:25.795Z,1.80
2018-01-02T11:20:54.048Z,1.60
2018-01-02T11:23:21.530Z,1.60
2018-01-02T11:25:49.767Z,1.50
2018-01-02T11:28:17.255Z,1.50
2018-01-02T11:30:45.519Z,1.30
2018-01-02T11:33:13.006Z,0.80
2018-01-02T11:35:41.247Z,1.07
2018-01-02T11:38:09.467Z,1.10
2018-01-02T11:40:36.997Z,1.30
2018-01-02T11:43:04.472Z,1.20
2018-01-02T11:45:33.243Z,1.70
2018-01-02T11:48:01.508Z,1.37
2018-01-02T11:50:28.967Z,1.50
2018-01-02T11:52:56.447Z,1.30
2018-01-02T11:55:24.680Z,1.50
2018-01-02T11:57:52.179Z,2.17
2018-01-02T12:00:20.414Z,1.67
2018-01-02T12:02:47.913Z,1.60
2018-01-02T12:05:16.154Z,1.50
2018-01-02T12:07:43.672Z,1.90
2018-01-02T12:10:11.157Z,2.07
2018-01-02T12:12:38.646Z,1.40
2018-01-02T12:15:06.112Z,1.93
2018-01-02T12:17:34.379Z,1.60
2018-01-02T12:20:02.598Z,1.60
2018-01-02T12:22:32.546Z,2.00
2018-01-02T12:25:00.034Z,3.20
2018-01-02T12:27:27.599Z,1.60
2018-01-02T12:29:55.839Z,1.70
2018-01-02T12:32:23.336Z,1.83
2018-01-02T12:34:51.573Z,2.13
2018-01-02T12:37:19.058Z,2.20
2018-01-02T12:39:46.521Z,2.10
2018-01-02T12:42:14.760Z,2.00
2018-01-02T12:44:42.229Z,2.73
2018-01-02T12:47:09.722Z,3.17
2018-01-02T12:49:37.964Z,7.93
2018-01-02T12:52:05.465Z,2.07
2018-01-02T12:54:33.687Z,3.43
2018-01-02T12:57:01.916Z,5.03
2018-01-02T12:59:29.402Z,2.53
2018-01-02T13:01:57.028Z,2.40
2018-01-02T13:04:25.278Z,3.33
2018-01-02T13:06:52.764Z,3.15
2018-01-02T13:09:21.027Z,4.50
2018-01-02T13:11:49.279Z,6.10
2018-01-02T13:14:16.779Z,3.57
2018-01-02T13:16:45.021Z,4.10
2018-01-02T13:19:12.496Z,3.50
2018-01-02T13:21:40.765Z,2.70
2018-01-02T13:24:08.248Z,2.20
2018-01-02T13:26:35.722Z,2.77
2018-01-02T13:29:03.194Z,2.70
2018-01-02T13:31:30.660Z,3.00
2018-01-02T13:33:58.148Z,3.10
2018-01-02T13:36:28.112Z,2.47
2018-01-02T13:38:55.602Z,2.10
2018-01-02T13:41:23.071Z,2.43
2018-01-02T13:43:50.544Z,3.33
2018-01-02T13:46:18.790Z,2.87
2018-01-02T13:48:46.263Z,2.30
2018-01-02T13:51:15.247Z,2.12
2018-01-02T13:53:42.786Z,2.93
2018-01-02T13:56:10.239Z,2.40
2018-01-02T13:58:38.602Z,2.07
2018-01-02T14:01:06.766Z,2.33
2018-01-02T14:03:34.244Z,1.87
2018-01-02T14:06:01.721Z,2.00
2018-01-02T14:08:29.204Z,2.50
2018-01-02T14:10:56.663Z,2.50
2018-01-02T14:13:24.132Z,2.03
2018-01-02T14:15:52.390Z,1.80
2018-01-02T14:18:20.632Z,1.60
2018-01-02T14:20:48.099Z,1.97
2018-01-02T14:23:15.584Z,2.23
2018-01-02T14:25:45.632Z,2.37
2018-01-02T14:28:13.291Z,2.10
2018-01-02T14:30:41.544Z,2.50
2018-01-02T14:33:09.027Z,1.90
2018-01-02T14:35:37.280Z,2.43
2018-01-02T14:38:05.513Z,2.73
2018-01-02T14:40:33.063Z,2.50
2018-01-02T14:43:01.298Z,2.60
2018-01-02T14:45:29.564Z,2.90
2018-01-02T14:47:57.124Z,2.80
2018-01-02T14:50:24.636Z,2.27
2018-01-02T14:52:52.151Z,3.00
2018-01-02T14:55:20.410Z,3.40
2018-01-02T14:57:47.898Z,2.60
2018-01-02T15:00:16.151Z,2.30
2018-01-02T15:02:43.641Z,2.20
2018-01-02T15:05:11.899Z,2.60
2018-01-02T15:07:40.235Z,1.83
2018-01-02T15:10:07.719Z,2.57
2018-01-02T15:12:35.180Z,2.77
2018-01-02T15:15:03.430Z,2.67
2018-01-02T15:17:30.900Z,2.03
2018-01-02T15:19:58.407Z,2.43
2018-01-02T15:22:25.882Z,1.73
2018-01-02T15:24:53.363Z,2.90
2018-01-02T15:27:20.869Z,2.20
2018-01-02T15:29:48.348Z,2.30
2018-01-02T15:32:15.838Z,3.17
2018-01-02T15:34:43.374Z,3.13
2018-01-02T15:37:10.831Z,2.67
2018-01-02T15:39:39.764Z,2.63
2018-01-02T15:42:07.230Z,2.20
2018-01-02T15:44:35.485Z,2.70
2018-01-02T15:47:02.967Z,2.37
2018-01-02T15:49:31.196Z,4.10
2018-01-02T15:51:58.675Z,2.83
2018-01-02T15:54:26.182Z,3.43
2018-01-02T15:56:53.660Z,4.13
2018-01-02T15:59:21.178Z,3.20
2018-01-02T16:01:49.436Z,4.93
2018-01-02T16:04:17.719Z,3.90
2018-01-02T16:06:46.689Z,3.10
2018-01-02T16:09:14.191Z,3.90
2018-01-02T16:11:42.483Z,3.10
2018-01-02T16:14:09.962Z,2.57
2018-01-02T16:16:37.460Z,4.03
2018-01-02T16:19:06.439Z,2.77
2018-01-02T16:21:33.968Z,3.37
2018-01-02T16:24:01.496Z,3.17
2018-01-02T16:26:29.736Z,3.50
2018-01-02T16:28:57.201Z,3.43
2018-01-02T16:31:24.718Z,2.90
2018-01-02T16:33:52.237Z,3.90
2018-01-02T16:36:20.534Z,3.83
2018-01-02T16:38:47.995Z,3.20
2018-01-02T16:41:15.481Z,2.80
2018-01-02T16:43:42.970Z,3.33
2018-01-02T16:46:10.455Z,2.93
2018-01-02T16:48:37.983Z,3.37
2018-01-02T16:51:05.503Z,3.30
2018-01-02T16:53:33.023Z,3.20
2018-01-02T16:56:01.327Z,3.07
2018-01-02T16:58:28.860Z,2.58
2018-01-02T17:00:57.098Z,2.70
2018-01-02T17:03:24.624Z,3.07
2018-01-02T17:05:52.096Z,3.40
2018-01-02T17:08:19.625Z,2.85
2018-01-02T17:10:47.205Z,4.03
2018-01-02T17:13:14.743Z,3.77
2018-01-02T17:15:42.269Z,3.60
2018-01-02T17:18:09.794Z,3.10
2018-01-02T17:20:37.550Z,3.62
2018-01-02T17:23:05.085Z,3.77
2018-01-02T17:25:32.603Z,5.27
2018-01-02T17:28:00.143Z,4.40
2018-01-02T17:30:27.644Z,4.60
2018-01-02T17:32:55.907Z,3.93
2018-01-02T17:35:24.287Z,3.03
2018-01-02T17:37:51.810Z,4.10
2018-01-02T17:40:19.323Z,4.20
2018-01-02T17:42:47.639Z,4.43
2018-01-02T17:45:15.170Z,4.37
2018-01-02T17:47:43.515Z,3.90
2018-01-02T17:50:11.100Z,5.30
2018-01-02T17:52:39.488Z,6.30
2018-01-02T17:55:07.000Z,5.63
2018-01-02T17:57:34.538Z,5.23
2018-01-02T18:00:02.038Z,5.50
2018-01-02T18:02:30.321Z,4.90
2018-01-02T18:04:58.613Z,4.27
2018-01-02T18:07:26.160Z,5.57
2018-01-02T18:09:54.457Z,5.83
2018-01-02T18:12:22.140Z,4.50
2018-01-02T18:14:49.622Z,8.47
2018-01-02T18:17:17.154Z,6.80
2018-01-02T18:19:44.686Z,4.93
2018-01-02T18:22:12.214Z,7.70
2018-01-02T18:24:39.738Z,9.00
2018-01-02T18:27:07.250Z,6.50
2018-01-02T18:29:35.554Z,5.57
2018-01-02T18:32:03.064Z,5.60
2018-01-02T18:34:30.590Z,5.10
2018-01-02T18:36:58.046Z,5.40
2018-01-02T18:39:25.572Z,6.00
2018-01-02T18:41:53.092Z,6.53
2018-01-02T18:44:20.568Z,7.73
2018-01-02T18:46:49.772Z,5.73
2018-01-02T18:49:19.082Z,6.87
2018-01-02T18:51:47.338Z,6.93
2018-01-02T18:54:15.637Z,7.43
2018-01-02T18:56:43.919Z,5.73
2018-01-02T18:59:11.413Z,5.75
2018-01-02T19:01:38.876Z,5.77
2018-01-02T19:04:06.439Z,5.37
2018-01-02T19:06:33.952Z,5.23
2018-01-02T19:09:01.490Z,5.33
2018-01-02T19:11:29.811Z,5.30
2018-01-02T19:13:57.335Z,5.20
2018-01-02T19:16:25.648Z,4.60
2018-01-02T19:18:53.184Z,6.70
2018-01-02T19:21:20.743Z,6.72
2018-01-02T19:23:49.235Z,7.77
2018-01-02T19:26:17.711Z,9.10
2018-01-02T19:28:45.238Z,9.53
2018-01-02T19:31:12.780Z,8.70
2018-01-02T19:33:40.298Z,9.03
2018-01-02T19:36:08.777Z,5.67
2018-01-02T19:38:37.059Z,7.60
2018-01-02T19:41:04.598Z,6.27
2018-01-02T19:43:32.132Z,4.30
2018-01-02T19:46:00.460Z,5.00
2018-01-02T19:48:28.112Z,3.93
2018-01-02T19:50:55.645Z,3.50
2018-01-02T19:53:23.938Z,3.33
2018-01-02T19:55:51.471Z,3.37
2018-01-02T19:58:19.752Z,3.57
2018-01-02T20:00:48.070Z,4.30
2018-01-02T20:03:15.599Z,4.07
2018-01-02T20:05:43.891Z,3.60
2018-01-02T20:08:11.420Z,3.67
2018-01-02T20:10:39.727Z,3.20
2018-01-02T20:13:07.251Z,2.87
2018-01-02T20:15:35.549Z,3.12
2018-01-02T20:18:03.070Z,5.40
2018-01-02T20:20:30.591Z,4.27
2018-01-02T20:25:51.019Z,4.80
2018-01-02T20:28:18.540Z,7.20
2018-01-02T20:30:46.944Z,6.90
2018-01-02T20:33:14.471Z,4.90
2018-01-02T20:35:42.758Z,5.93
2018-01-02T20:38:10.271Z,3.30
2018-01-02T20:40:37.800Z,4.30
2018-01-02T20:43:05.333Z,3.70
2018-01-02T20:45:32.892Z,3.40
2018-01-02T20:48:00.416Z,2.20
2018-01-02T20:50:27.931Z,3.00
2018-01-02T20:52:55.455Z,3.57
2018-01-02T20:55:23.758Z,3.13
2018-01-02T20:57:51.311Z,3.00
2018-01-02T21:00:18.819Z,3.13
2018-01-02T21:02:46.362Z,3.28
2018-01-02T21:05:15.100Z,2.30
2018-01-02T21:07:43.418Z,2.93
2018-01-02T21:10:12.181Z,2.67
2018-01-02T21:12:39.751Z,3.20
2018-01-02T21:15:07.265Z,3.07
2018-01-02T21:17:34.803Z,2.80
2018-01-02T21:20:02.358Z,3.80
2018-01-02T21:22:30.088Z,4.17
2018-01-02T21:24:57.623Z,3.50
2018-01-02T21:27:25.915Z,3.90
2018-01-02T21:29:53.430Z,3.90
2018-01-02T21:32:22.512Z,4.50
2018-01-02T21:34:50.036Z,4.00
2018-01-02T21:37:17.562Z,7.10
2018-01-02T21:39:45.889Z,7.10
2018-01-02T21:42:13.416Z,4.68
2018-01-02T21:44:40.950Z,4.83
2018-01-02T21:47:08.503Z,6.70
2018-01-02T21:49:36.807Z,5.00
2018-01-02T21:52:04.349Z,4.90
2018-01-02T21:54:32.644Z,3.00
2018-01-02T21:57:01.814Z,2.20
2018-01-02T21:59:30.856Z,1.77
2018-01-02T22:01:58.390Z,1.90
2018-01-02T22:04:26.669Z,1.60
2018-01-02T22:06:54.968Z,1.90
2018-01-02T22:09:22.479Z,2.17
2018-01-02T22:11:50.005Z,2.50
2018-01-02T22:14:17.551Z,2.00
2018-01-02T22:16:45.092Z,1.93
2018-01-02T22:19:12.632Z,1.93
2018-01-02T22:21:42.054Z,1.93
2018-01-02T22:24:09.575Z,2.07
2018-01-02T22:26:37.194Z,1.73
2018-01-02T22:29:04.726Z,1.50
2018-01-02T22:31:32.311Z,1.63
2018-01-02T22:34:00.287Z,1.37
2018-01-02T22:36:27.807Z,1.37
2018-01-02T22:38:56.106Z,1.40
2018-01-02T22:41:23.630Z,1.70
2018-01-02T22:43:52.030Z,2.57
2018-01-02T22:46:20.844Z,1.70
2018-01-02T22:48:48.383Z,1.77
2018-01-02T22:51:15.904Z,1.27
2018-01-02T22:53:43.436Z,1.50
2018-01-02T22:56:10.968Z,1.40
2018-01-02T22:58:38.503Z,1.60
2018-01-02T23:01:06.786Z,1.63
2018-01-02T23:03:35.090Z,2.03
2018-01-02T23:06:02.598Z,1.20
2018-01-02T23:08:30.123Z,1.50
2018-01-02T23:10:57.641Z,1.47
2018-01-02T23:13:25.166Z,1.50
2018-01-02T23:15:52.685Z,1.70
2018-01-02T23:18:20.218Z,2.40
2018-01-02T23:20:47.726Z,1.62
2018-01-02T23:23:15.270Z,1.50
2018-01-02T23:25:42.788Z,1.90
2018-01-02T23:28:11.191Z,1.63
2018-01-02T23:30:38.746Z,1.40
2018-01-02T23:33:06.260Z,1.57
2018-01-02T23:35:33.781Z,1.60
2018-01-02T23:38:01.283Z,1.50
2018-01-02T23:40:28.793Z,1.70
2018-01-02T23:42:56.314Z,1.87
2018-01-02T23:45:23.879Z,1.30
2018-01-02T23:47:52.154Z,1.40
2018-01-02T23:50:20.433Z,1.23
2018-01-02T23:52:48.711Z,1.50
2018-01-02T23:55:16.240Z,1.50
2018-01-02T23:57:43.761Z,1.40
